sensor_id;sensor_type;location;lat;lon;timestamp;pressure;altitude;pressure_sealevel;temperature;humidity
15694;BME280;7947;48.834;9.132;2023-06-26T00:00:07;98103.97;;;20.73;57.13
15694;BME280;7947;48.834;9.132;2023-06-26T00:03:12;98100.47;;;20.72;57.16
15694;BME280;7947;48.834;9.132;2023-06-26T00:06:16;98102.06;;;20.61;57.53
15694;BME280;7947;48.834;9.132;2023-06-26T00:09:19;98111.34;;;20.60;57.85
15694;BME280;7947;48.834;9.132;2023-06-26T00:12:22;98106.25;;;20.58;58.21
15694;BME280;7947;48.834;9.132;2023-06-26T00:15:25;98108.06;;;20.54;58.15
15694;BME280;7947;48.834;9.132;2023-06-26T00:18:34;98109.31;;;20.57;58.35
15694;BME280;7947;48.834;9.132;2023-06-26T00:21:37;98109.66;;;20.55;58.39
15694;BME280;7947;48.834;9.132;2023-06-26T00:24:40;98112.69;;;20.54;58.52
15694;BME280;7947;48.834;9.132;2023-06-26T00:27:43;98108.59;;;20.48;58.72
15694;BME280;7947;48.834;9.132;2023-06-26T00:30:46;98114.06;;;20.48;58.95
15694;BME280;7947;48.834;9.132;2023-06-26T00:33:50;98111.47;;;20.39;58.72
15694;BME280;7947;48.834;9.132;2023-06-26T00:36:53;98111.22;;;20.32;58.47
15694;BME280;7947;48.834;9.132;2023-06-26T00:39:56;98116.69;;;20.32;58.48
15694;BME280;7947;48.834;9.132;2023-06-26T00:42:59;98106.56;;;20.33;58.70
15694;BME280;7947;48.834;9.132;2023-06-26T00:46:02;98103.47;;;20.34;58.90
15694;BME280;7947;48.834;9.132;2023-06-26T00:49:06;98102.59;;;20.30;58.84
15694;BME280;7947;48.834;9.132;2023-06-26T00:52:09;98105.78;;;20.32;58.98
15694;BME280;7947;48.834;9.132;2023-06-26T00:55:12;98104.19;;;20.31;58.70
15694;BME280;7947;48.834;9.132;2023-06-26T00:58:15;98105.91;;;20.36;59.31
15694;BME280;7947;48.834;9.132;2023-06-26T01:01:18;98106.66;;;20.36;59.22
15694;BME280;7947;48.834;9.132;2023-06-26T01:04:24;98091.47;;;20.35;59.51
15694;BME280;7947;48.834;9.132;2023-06-26T01:07:29;98095.66;;;20.33;58.95
15694;BME280;7947;48.834;9.132;2023-06-26T01:10:33;98093.97;;;20.28;59.44
15694;BME280;7947;48.834;9.132;2023-06-26T01:13:37;98093.81;;;20.25;59.80
15694;BME280;7947;48.834;9.132;2023-06-26T01:16:41;98092.59;;;20.22;60.00
15694;BME280;7947;48.834;9.132;2023-06-26T01:19:52;98096.16;;;20.14;60.38
15694;BME280;7947;48.834;9.132;2023-06-26T01:23:01;98089.00;;;20.10;60.67
15694;BME280;7947;48.834;9.132;2023-06-26T01:26:17;98100.78;;;20.02;60.51
15694;BME280;7947;48.834;9.132;2023-06-26T01:29:22;98088.66;;;19.99;61.28
15694;BME280;7947;48.834;9.132;2023-06-26T01:32:26;98096.56;;;19.92;61.96
15694;BME280;7947;48.834;9.132;2023-06-26T01:35:29;98086.34;;;19.89;61.77
15694;BME280;7947;48.834;9.132;2023-06-26T01:38:33;98085.78;;;19.84;61.82
15694;BME280;7947;48.834;9.132;2023-06-26T01:41:37;98075.47;;;19.89;61.66
15694;BME280;7947;48.834;9.132;2023-06-26T01:44:44;98071.13;;;19.88;62.13
15694;BME280;7947;48.834;9.132;2023-06-26T01:47:50;98082.72;;;19.85;61.99
15694;BME280;7947;48.834;9.132;2023-06-26T01:50:55;98083.41;;;19.82;62.61
15694;BME280;7947;48.834;9.132;2023-06-26T01:54:01;98077.34;;;19.76;62.13
15694;BME280;7947;48.834;9.132;2023-06-26T01:57:07;98067.03;;;19.70;62.40
15694;BME280;7947;48.834;9.132;2023-06-26T02:00:12;98069.63;;;19.66;63.12
15694;BME280;7947;48.834;9.132;2023-06-26T02:03:16;98073.13;;;19.67;62.97
15694;BME280;7947;48.834;9.132;2023-06-26T02:06:19;98068.81;;;19.66;63.31
15694;BME280;7947;48.834;9.132;2023-06-26T02:09:21;98071.88;;;19.64;63.23
15694;BME280;7947;48.834;9.132;2023-06-26T02:12:26;98076.88;;;19.62;63.88
15694;BME280;7947;48.834;9.132;2023-06-26T02:15:28;98068.88;;;19.57;63.78
15694;BME280;7947;48.834;9.132;2023-06-26T02:18:31;98068.53;;;19.59;65.15
15694;BME280;7947;48.834;9.132;2023-06-26T02:21:34;98069.69;;;19.58;64.52
15694;BME280;7947;48.834;9.132;2023-06-26T02:24:37;98067.91;;;19.62;64.66
15694;BME280;7947;48.834;9.132;2023-06-26T02:27:41;98068.44;;;19.55;64.42
15694;BME280;7947;48.834;9.132;2023-06-26T02:30:44;98074.31;;;19.57;64.51
15694;BME280;7947;48.834;9.132;2023-06-26T02:33:47;98076.94;;;19.54;64.47
15694;BME280;7947;48.834;9.132;2023-06-26T02:36:51;98074.09;;;19.50;64.79
15694;BME280;7947;48.834;9.132;2023-06-26T02:39:56;98073.16;;;19.46;64.61
15694;BME280;7947;48.834;9.132;2023-06-26T02:43:00;98069.03;;;19.40;64.65
15694;BME280;7947;48.834;9.132;2023-06-26T02:46:03;98071.63;;;19.37;65.29
15694;BME280;7947;48.834;9.132;2023-06-26T02:49:06;98069.91;;;19.32;65.55
15694;BME280;7947;48.834;9.132;2023-06-26T02:52:09;98066.22;;;19.28;65.04
15694;BME280;7947;48.834;9.132;2023-06-26T02:55:12;98065.97;;;19.21;65.08
15694;BME280;7947;48.834;9.132;2023-06-26T02:58:16;98071.28;;;19.18;65.90
15694;BME280;7947;48.834;9.132;2023-06-26T03:01:19;98069.56;;;19.13;65.14
15694;BME280;7947;48.834;9.132;2023-06-26T03:04:22;98071.16;;;19.14;66.06
15694;BME280;7947;48.834;9.132;2023-06-26T03:07:25;98070.88;;;19.07;65.74
15694;BME280;7947;48.834;9.132;2023-06-26T03:10:28;98076.31;;;19.07;65.99
15694;BME280;7947;48.834;9.132;2023-06-26T03:13:33;98073.81;;;19.02;65.98
15694;BME280;7947;48.834;9.132;2023-06-26T03:16:36;98075.13;;;18.96;66.65
15694;BME280;7947;48.834;9.132;2023-06-26T03:19:39;98076.69;;;18.97;66.61
15694;BME280;7947;48.834;9.132;2023-06-26T03:22:42;98077.84;;;18.96;66.80
15694;BME280;7947;48.834;9.132;2023-06-26T03:25:45;98073.72;;;18.90;66.95
15694;BME280;7947;48.834;9.132;2023-06-26T03:28:49;98071.81;;;18.90;67.21
15694;BME280;7947;48.834;9.132;2023-06-26T03:31:52;98078.22;;;18.86;66.80
15694;BME280;7947;48.834;9.132;2023-06-26T03:34:55;98078.34;;;18.89;67.66
15694;BME280;7947;48.834;9.132;2023-06-26T03:37:58;98069.41;;;18.89;67.58
15694;BME280;7947;48.834;9.132;2023-06-26T03:41:02;98079.16;;;18.90;67.87
15694;BME280;7947;48.834;9.132;2023-06-26T03:44:06;98086.03;;;18.87;67.72
15694;BME280;7947;48.834;9.132;2023-06-26T03:47:09;98080.59;;;18.87;67.67
15694;BME280;7947;48.834;9.132;2023-06-26T03:50:12;98076.34;;;18.78;67.46
15694;BME280;7947;48.834;9.132;2023-06-26T03:53:14;98075.56;;;18.77;67.74
15694;BME280;7947;48.834;9.132;2023-06-26T03:56:17;98082.53;;;18.87;67.73
15694;BME280;7947;48.834;9.132;2023-06-26T03:59:22;98079.34;;;18.85;67.64
15694;BME280;7947;48.834;9.132;2023-06-26T04:02:24;98085.53;;;18.94;67.88
15694;BME280;7947;48.834;9.132;2023-06-26T04:05:27;98090.50;;;18.92;67.25
15694;BME280;7947;48.834;9.132;2023-06-26T04:08:30;98086.19;;;18.91;67.77
15694;BME280;7947;48.834;9.132;2023-06-26T04:11:37;98083.47;;;18.91;67.61
15694;BME280;7947;48.834;9.132;2023-06-26T04:14:41;98083.59;;;18.95;68.59
15694;BME280;7947;48.834;9.132;2023-06-26T04:17:45;98089.31;;;19.02;68.39
15694;BME280;7947;48.834;9.132;2023-06-26T04:21:05;98083.53;;;19.03;68.83
15694;BME280;7947;48.834;9.132;2023-06-26T04:24:08;98094.09;;;19.05;68.44
15694;BME280;7947;48.834;9.132;2023-06-26T04:27:15;98093.75;;;19.06;68.88
15694;BME280;7947;48.834;9.132;2023-06-26T04:30:19;98091.50;;;19.08;69.36
15694;BME280;7947;48.834;9.132;2023-06-26T04:33:23;98090.19;;;19.14;69.62
15694;BME280;7947;48.834;9.132;2023-06-26T04:36:25;98095.63;;;19.14;69.60
15694;BME280;7947;48.834;9.132;2023-06-26T04:39:30;98090.78;;;19.20;70.08
15694;BME280;7947;48.834;9.132;2023-06-26T04:42:33;98085.34;;;19.20;70.50
15694;BME280;7947;48.834;9.132;2023-06-26T04:45:37;98087.84;;;19.25;71.03
15694;BME280;7947;48.834;9.132;2023-06-26T04:48:40;98085.25;;;19.28;70.52
15694;BME280;7947;48.834;9.132;2023-06-26T04:51:44;98083.09;;;19.42;71.00
15694;BME280;7947;48.834;9.132;2023-06-26T04:54:47;98086.88;;;19.50;70.65
15694;BME280;7947;48.834;9.132;2023-06-26T04:57:49;98082.84;;;19.56;70.88
15694;BME280;7947;48.834;9.132;2023-06-26T05:00:54;98087.19;;;19.69;71.41
15694;BME280;7947;48.834;9.132;2023-06-26T05:03:57;98081.66;;;19.77;71.97
15694;BME280;7947;48.834;9.132;2023-06-26T05:06:59;98082.03;;;19.88;72.67
15694;BME280;7947;48.834;9.132;2023-06-26T05:10:03;98080.34;;;19.96;72.99
15694;BME280;7947;48.834;9.132;2023-06-26T05:13:06;98081.06;;;20.05;73.05
15694;BME280;7947;48.834;9.132;2023-06-26T05:16:10;98079.84;;;20.14;73.62
15694;BME280;7947;48.834;9.132;2023-06-26T05:19:13;98086.47;;;20.25;73.38
15694;BME280;7947;48.834;9.132;2023-06-26T05:22:17;98086.03;;;20.35;73.00
15694;BME280;7947;48.834;9.132;2023-06-26T05:25:20;98090.78;;;20.50;72.98
15694;BME280;7947;48.834;9.132;2023-06-26T05:28:24;98082.97;;;20.61;70.51
15694;BME280;7947;48.834;9.132;2023-06-26T05:31:31;98079.66;;;20.80;68.98
15694;BME280;7947;48.834;9.132;2023-06-26T05:34:37;98086.13;;;20.99;69.57
15694;BME280;7947;48.834;9.132;2023-06-26T05:37:42;98086.59;;;21.13;68.49
15694;BME280;7947;48.834;9.132;2023-06-26T05:40:45;98087.13;;;21.31;68.40
15694;BME280;7947;48.834;9.132;2023-06-26T05:43:48;98095.69;;;21.45;68.21
15694;BME280;7947;48.834;9.132;2023-06-26T05:46:53;98089.41;;;21.56;65.46
15694;BME280;7947;48.834;9.132;2023-06-26T05:49:56;98088.22;;;21.70;63.55
15694;BME280;7947;48.834;9.132;2023-06-26T05:52:59;98092.72;;;21.90;62.16
15694;BME280;7947;48.834;9.132;2023-06-26T05:56:05;98093.09;;;22.04;61.51
15694;BME280;7947;48.834;9.132;2023-06-26T05:59:08;98088.78;;;22.18;61.04
15694;BME280;7947;48.834;9.132;2023-06-26T06:02:13;98084.06;;;22.31;60.47
15694;BME280;7947;48.834;9.132;2023-06-26T06:05:16;98090.31;;;22.47;60.42
15694;BME280;7947;48.834;9.132;2023-06-26T06:08:19;98082.16;;;22.63;59.82
15694;BME280;7947;48.834;9.132;2023-06-26T06:11:22;98084.06;;;22.78;58.77
15694;BME280;7947;48.834;9.132;2023-06-26T06:14:25;98086.78;;;22.93;58.90
15694;BME280;7947;48.834;9.132;2023-06-26T06:17:29;98085.50;;;23.06;56.63
15694;BME280;7947;48.834;9.132;2023-06-26T06:20:33;98080.28;;;23.17;56.46
15694;BME280;7947;48.834;9.132;2023-06-26T06:23:36;98087.56;;;23.28;55.50
15694;BME280;7947;48.834;9.132;2023-06-26T06:26:40;98083.19;;;23.43;55.36
15694;BME280;7947;48.834;9.132;2023-06-26T06:29:42;98097.97;;;23.58;55.54
15694;BME280;7947;48.834;9.132;2023-06-26T06:32:47;98089.25;;;23.71;54.26
15694;BME280;7947;48.834;9.132;2023-06-26T06:35:53;98088.81;;;23.88;53.44
15694;BME280;7947;48.834;9.132;2023-06-26T06:38:56;98096.84;;;24.00;53.28
15694;BME280;7947;48.834;9.132;2023-06-26T06:41:58;98097.81;;;24.08;51.75
15694;BME280;7947;48.834;9.132;2023-06-26T06:45:02;98094.97;;;24.24;52.05
15694;BME280;7947;48.834;9.132;2023-06-26T06:48:07;98099.25;;;24.44;52.29
15694;BME280;7947;48.834;9.132;2023-06-26T06:51:10;98096.47;;;24.66;52.73
15694;BME280;7947;48.834;9.132;2023-06-26T06:54:15;98094.91;;;24.88;50.77
15694;BME280;7947;48.834;9.132;2023-06-26T06:57:18;98096.44;;;25.12;50.37
15694;BME280;7947;48.834;9.132;2023-06-26T07:00:21;98093.97;;;25.33;48.98
15694;BME280;7947;48.834;9.132;2023-06-26T07:03:25;98091.09;;;25.48;46.05
15694;BME280;7947;48.834;9.132;2023-06-26T07:06:29;98095.53;;;25.60;46.59
15694;BME280;7947;48.834;9.132;2023-06-26T07:09:32;98080.53;;;25.83;46.55
15694;BME280;7947;48.834;9.132;2023-06-26T07:12:35;98089.06;;;26.08;46.88
15694;BME280;7947;48.834;9.132;2023-06-26T07:15:38;98095.59;;;26.33;46.98
15694;BME280;7947;48.834;9.132;2023-06-26T07:18:42;98089.13;;;26.55;45.67
15694;BME280;7947;48.834;9.132;2023-06-26T07:21:45;98092.88;;;26.77;45.07
15694;BME280;7947;48.834;9.132;2023-06-26T07:24:48;98089.06;;;26.92;42.12
15694;BME280;7947;48.834;9.132;2023-06-26T07:27:51;98090.63;;;26.97;42.28
15694;BME280;7947;48.834;9.132;2023-06-26T07:30:54;98097.88;;;27.19;42.74
15694;BME280;7947;48.834;9.132;2023-06-26T07:33:59;98090.56;;;27.44;42.97
15694;BME280;7947;48.834;9.132;2023-06-26T07:37:01;98092.19;;;27.52;41.62
15694;BME280;7947;48.834;9.132;2023-06-26T07:40:05;98099.34;;;27.74;42.81
15694;BME280;7947;48.834;9.132;2023-06-26T07:43:08;98090.81;;;27.97;43.02
15694;BME280;7947;48.834;9.132;2023-06-26T07:46:11;98089.66;;;28.19;42.98
15694;BME280;7947;48.834;9.132;2023-06-26T07:49:16;98086.13;;;28.36;40.78
15694;BME280;7947;48.834;9.132;2023-06-26T07:52:19;98084.19;;;28.50;41.94
15694;BME280;7947;48.834;9.132;2023-06-26T07:55:22;98092.91;;;28.67;41.32
15694;BME280;7947;48.834;9.132;2023-06-26T07:58:27;98087.38;;;28.88;41.42
15694;BME280;7947;48.834;9.132;2023-06-26T08:01:30;98087.34;;;29.02;40.79
15694;BME280;7947;48.834;9.132;2023-06-26T08:04:35;98088.16;;;29.13;39.52
15694;BME280;7947;48.834;9.132;2023-06-26T08:07:38;98089.72;;;29.24;40.11
15694;BME280;7947;48.834;9.132;2023-06-26T08:10:41;98082.97;;;29.36;39.51
15694;BME280;7947;48.834;9.132;2023-06-26T08:13:44;98076.22;;;29.48;39.49
15694;BME280;7947;48.834;9.132;2023-06-26T08:16:47;98071.41;;;29.62;39.43
15694;BME280;7947;48.834;9.132;2023-06-26T08:19:51;98081.66;;;29.83;38.13
15694;BME280;7947;48.834;9.132;2023-06-26T08:22:54;98084.34;;;29.93;38.54
15694;BME280;7947;48.834;9.132;2023-06-26T08:25:57;98072.47;;;30.00;37.79
15694;BME280;7947;48.834;9.132;2023-06-26T08:29:00;98072.00;;;30.08;37.58
15694;BME280;7947;48.834;9.132;2023-06-26T08:32:12;98069.59;;;30.17;39.26
15694;BME280;7947;48.834;9.132;2023-06-26T08:35:17;98071.91;;;30.30;37.18
15694;BME280;7947;48.834;9.132;2023-06-26T08:38:19;98064.72;;;30.39;36.54
15694;BME280;7947;48.834;9.132;2023-06-26T08:41:23;98060.41;;;30.35;36.23
15694;BME280;7947;48.834;9.132;2023-06-26T08:44:25;98069.47;;;30.39;37.60
15694;BME280;7947;48.834;9.132;2023-06-26T08:47:29;98066.16;;;30.58;36.69
15694;BME280;7947;48.834;9.132;2023-06-26T08:50:35;98066.09;;;30.65;36.35
15694;BME280;7947;48.834;9.132;2023-06-26T08:53:44;98070.75;;;30.75;36.82
15694;BME280;7947;48.834;9.132;2023-06-26T08:56:49;98067.91;;;30.82;36.76
15694;BME280;7947;48.834;9.132;2023-06-26T08:59:52;98072.97;;;30.94;35.65
15694;BME280;7947;48.834;9.132;2023-06-26T09:02:56;98076.44;;;31.05;36.45
15694;BME280;7947;48.834;9.132;2023-06-26T09:06:00;98072.00;;;31.11;35.14
15694;BME280;7947;48.834;9.132;2023-06-26T09:09:03;98064.91;;;31.10;35.09
15694;BME280;7947;48.834;9.132;2023-06-26T09:12:08;98061.25;;;31.17;35.65
15694;BME280;7947;48.834;9.132;2023-06-26T09:15:14;98060.00;;;31.25;34.38
15694;BME280;7947;48.834;9.132;2023-06-26T09:18:18;98059.63;;;31.23;34.83
15694;BME280;7947;48.834;9.132;2023-06-26T09:21:23;98054.34;;;31.35;34.15
15694;BME280;7947;48.834;9.132;2023-06-26T09:24:26;98055.06;;;31.43;34.25
15694;BME280;7947;48.834;9.132;2023-06-26T09:27:30;98057.00;;;31.49;35.36
15694;BME280;7947;48.834;9.132;2023-06-26T09:30:34;98058.06;;;31.55;34.88
15694;BME280;7947;48.834;9.132;2023-06-26T09:33:38;98059.50;;;31.70;35.42
15694;BME280;7947;48.834;9.132;2023-06-26T09:36:44;98060.13;;;31.81;35.56
15694;BME280;7947;48.834;9.132;2023-06-26T09:39:50;98069.75;;;31.73;33.34
15694;BME280;7947;48.834;9.132;2023-06-26T09:43:02;98057.53;;;31.37;34.57
15694;BME280;7947;48.834;9.132;2023-06-26T09:46:06;98059.81;;;31.05;34.96
15694;BME280;7947;48.834;9.132;2023-06-26T09:49:10;98060.50;;;30.72;35.39
15694;BME280;7947;48.834;9.132;2023-06-26T09:52:16;98065.69;;;30.66;36.82
15694;BME280;7947;48.834;9.132;2023-06-26T09:55:20;98048.06;;;30.94;36.39
15694;BME280;7947;48.834;9.132;2023-06-26T09:58:24;98059.63;;;31.23;35.93
15694;BME280;7947;48.834;9.132;2023-06-26T10:01:31;98046.38;;;31.41;35.57
15694;BME280;7947;48.834;9.132;2023-06-26T10:04:34;98057.09;;;31.39;34.14
15694;BME280;7947;48.834;9.132;2023-06-26T10:07:39;98054.28;;;31.42;36.20
15694;BME280;7947;48.834;9.132;2023-06-26T10:10:45;98048.66;;;31.49;35.67
15694;BME280;7947;48.834;9.132;2023-06-26T10:13:51;98050.00;;;31.68;36.44
15694;BME280;7947;48.834;9.132;2023-06-26T10:17:19;98053.38;;;31.82;35.83
15694;BME280;7947;48.834;9.132;2023-06-26T10:20:24;98064.06;;;31.84;35.73
15694;BME280;7947;48.834;9.132;2023-06-26T10:23:30;98050.44;;;31.96;36.12
15694;BME280;7947;48.834;9.132;2023-06-26T10:26:36;98059.72;;;32.13;35.65
15694;BME280;7947;48.834;9.132;2023-06-26T10:29:42;98065.97;;;32.21;36.90
15694;BME280;7947;48.834;9.132;2023-06-26T10:32:46;98064.28;;;32.27;35.67
15694;BME280;7947;48.834;9.132;2023-06-26T10:35:50;98063.91;;;32.25;34.82
15694;BME280;7947;48.834;9.132;2023-06-26T10:38:57;98067.09;;;32.23;35.38
15694;BME280;7947;48.834;9.132;2023-06-26T10:42:08;98076.22;;;32.24;34.48
15694;BME280;7947;48.834;9.132;2023-06-26T10:45:14;98076.22;;;32.24;33.92
15694;BME280;7947;48.834;9.132;2023-06-26T10:48:18;98074.69;;;32.19;34.63
15694;BME280;7947;48.834;9.132;2023-06-26T10:51:22;98069.50;;;32.21;34.86
15694;BME280;7947;48.834;9.132;2023-06-26T10:54:29;98069.97;;;32.16;35.55
15694;BME280;7947;48.834;9.132;2023-06-26T10:57:35;98081.34;;;32.25;34.37
15694;BME280;7947;48.834;9.132;2023-06-26T11:00:49;98085.47;;;32.14;34.46
15694;BME280;7947;48.834;9.132;2023-06-26T11:04:04;98079.44;;;31.88;35.11
15694;BME280;7947;48.834;9.132;2023-06-26T11:07:19;98079.34;;;31.65;35.58
15694;BME280;7947;48.834;9.132;2023-06-26T11:10:25;98072.66;;;31.63;35.70
15694;BME280;7947;48.834;9.132;2023-06-26T11:13:29;98083.38;;;31.61;35.61
15694;BME280;7947;48.834;9.132;2023-06-26T11:16:32;98086.75;;;31.42;36.23
15694;BME280;7947;48.834;9.132;2023-06-26T11:19:35;98082.66;;;31.57;36.67
15694;BME280;7947;48.834;9.132;2023-06-26T11:22:40;98087.13;;;31.77;37.21
15694;BME280;7947;48.834;9.132;2023-06-26T11:25:45;98081.34;;;31.98;36.40
15694;BME280;7947;48.834;9.132;2023-06-26T11:28:49;98089.91;;;32.08;37.62
15694;BME280;7947;48.834;9.132;2023-06-26T11:31:59;98096.94;;;32.16;37.37
15694;BME280;7947;48.834;9.132;2023-06-26T11:35:06;98111.63;;;32.16;37.40
15694;BME280;7947;48.834;9.132;2023-06-26T11:38:11;98099.31;;;32.17;37.69
15694;BME280;7947;48.834;9.132;2023-06-26T11:41:18;98119.16;;;32.16;36.86
15694;BME280;7947;48.834;9.132;2023-06-26T11:44:21;98120.38;;;32.15;37.75
15694;BME280;7947;48.834;9.132;2023-06-26T11:47:24;98112.78;;;32.19;37.80
15694;BME280;7947;48.834;9.132;2023-06-26T11:50:27;98122.72;;;32.16;38.04
15694;BME280;7947;48.834;9.132;2023-06-26T11:53:30;98126.66;;;32.19;37.38
15694;BME280;7947;48.834;9.132;2023-06-26T11:56:34;98140.25;;;32.10;37.98
15694;BME280;7947;48.834;9.132;2023-06-26T11:59:38;98134.78;;;31.69;38.24
15694;BME280;7947;48.834;9.132;2023-06-26T12:02:41;98128.75;;;31.40;39.66
15694;BME280;7947;48.834;9.132;2023-06-26T12:05:45;98127.94;;;31.43;39.46
15694;BME280;7947;48.834;9.132;2023-06-26T12:08:48;98132.22;;;31.51;39.41
15694;BME280;7947;48.834;9.132;2023-06-26T12:11:53;98135.66;;;31.62;40.10
15694;BME280;7947;48.834;9.132;2023-06-26T12:14:57;98131.50;;;31.77;38.89
15694;BME280;7947;48.834;9.132;2023-06-26T12:18:07;98135.34;;;31.87;38.19
15694;BME280;7947;48.834;9.132;2023-06-26T12:21:33;98134.19;;;31.88;38.88
15694;BME280;7947;48.834;9.132;2023-06-26T12:24:37;98129.00;;;31.90;39.15
15694;BME280;7947;48.834;9.132;2023-06-26T12:27:44;98141.75;;;31.84;38.09
15694;BME280;7947;48.834;9.132;2023-06-26T12:30:47;98134.34;;;31.74;38.87
15694;BME280;7947;48.834;9.132;2023-06-26T12:33:52;98132.00;;;31.69;38.99
15694;BME280;7947;48.834;9.132;2023-06-26T12:37:00;98121.25;;;31.74;39.01
15694;BME280;7947;48.834;9.132;2023-06-26T12:40:03;98110.44;;;31.83;40.58
15694;BME280;7947;48.834;9.132;2023-06-26T12:43:22;98131.75;;;31.93;39.44
15694;BME280;7947;48.834;9.132;2023-06-26T12:46:33;98113.44;;;32.00;38.24
15694;BME280;7947;48.834;9.132;2023-06-26T12:49:37;98119.69;;;32.07;37.37
15694;BME280;7947;48.834;9.132;2023-06-26T12:52:40;98120.06;;;32.09;38.29
15694;BME280;7947;48.834;9.132;2023-06-26T12:55:43;98108.09;;;32.12;37.43
15694;BME280;7947;48.834;9.132;2023-06-26T12:58:47;98114.53;;;32.06;37.92
15694;BME280;7947;48.834;9.132;2023-06-26T13:01:50;98117.78;;;32.01;37.68
15694;BME280;7947;48.834;9.132;2023-06-26T13:04:53;98114.56;;;32.02;37.83
15694;BME280;7947;48.834;9.132;2023-06-26T13:07:56;98122.84;;;32.06;37.97
15694;BME280;7947;48.834;9.132;2023-06-26T13:11:00;98121.66;;;32.07;36.99
15694;BME280;7947;48.834;9.132;2023-06-26T13:14:05;98114.63;;;31.98;36.35
15694;BME280;7947;48.834;9.132;2023-06-26T13:17:12;98122.34;;;31.80;36.47
15694;BME280;7947;48.834;9.132;2023-06-26T13:20:15;98112.59;;;31.69;36.73
15694;BME280;7947;48.834;9.132;2023-06-26T13:23:18;98105.16;;;31.62;37.58
15694;BME280;7947;48.834;9.132;2023-06-26T13:26:21;98121.69;;;31.69;35.65
15694;BME280;7947;48.834;9.132;2023-06-26T13:29:39;98109.47;;;31.63;35.67
15694;BME280;7947;48.834;9.132;2023-06-26T13:32:42;98108.69;;;31.66;37.02
15694;BME280;7947;48.834;9.132;2023-06-26T13:35:46;98119.56;;;31.84;36.10
15694;BME280;7947;48.834;9.132;2023-06-26T13:38:49;98109.59;;;31.86;35.66
15694;BME280;7947;48.834;9.132;2023-06-26T13:41:57;98121.97;;;31.82;34.65
15694;BME280;7947;48.834;9.132;2023-06-26T13:45:02;98100.72;;;31.68;34.06
15694;BME280;7947;48.834;9.132;2023-06-26T13:48:19;98108.72;;;31.63;35.46
15694;BME280;7947;48.834;9.132;2023-06-26T13:51:22;98099.50;;;31.69;34.20
15694;BME280;7947;48.834;9.132;2023-06-26T13:54:25;98103.03;;;31.73;34.26
15694;BME280;7947;48.834;9.132;2023-06-26T13:57:28;98101.50;;;31.69;33.89
15694;BME280;7947;48.834;9.132;2023-06-26T14:00:34;98100.25;;;31.73;33.74
15694;BME280;7947;48.834;9.132;2023-06-26T14:03:37;98103.03;;;31.73;34.01
15694;BME280;7947;48.834;9.132;2023-06-26T14:06:41;98111.03;;;31.68;34.09
15694;BME280;7947;48.834;9.132;2023-06-26T14:09:44;98118.56;;;31.67;33.02
15694;BME280;7947;48.834;9.132;2023-06-26T14:12:47;98109.53;;;31.60;33.08
15694;BME280;7947;48.834;9.132;2023-06-26T14:15:51;98114.78;;;31.51;32.13
15694;BME280;7947;48.834;9.132;2023-06-26T14:18:55;98116.78;;;31.50;32.67
15694;BME280;7947;48.834;9.132;2023-06-26T14:21:58;98113.25;;;31.46;32.42
15694;BME280;7947;48.834;9.132;2023-06-26T14:25:00;98122.41;;;31.43;33.56
15694;BME280;7947;48.834;9.132;2023-06-26T14:28:03;98126.03;;;31.33;33.39
15694;BME280;7947;48.834;9.132;2023-06-26T14:31:08;98130.13;;;31.22;32.76
15694;BME280;7947;48.834;9.132;2023-06-26T14:34:11;98124.63;;;31.18;32.53
15694;BME280;7947;48.834;9.132;2023-06-26T14:37:14;98140.81;;;31.20;33.17
15694;BME280;7947;48.834;9.132;2023-06-26T14:40:18;98133.69;;;31.22;34.43
15694;BME280;7947;48.834;9.132;2023-06-26T14:43:21;98132.91;;;31.22;34.06
15694;BME280;7947;48.834;9.132;2023-06-26T14:46:25;98142.44;;;31.17;33.88
15694;BME280;7947;48.834;9.132;2023-06-26T14:49:29;98144.81;;;31.15;34.47
15694;BME280;7947;48.834;9.132;2023-06-26T14:52:32;98143.38;;;31.00;33.94
15694;BME280;7947;48.834;9.132;2023-06-26T14:55:35;98148.16;;;30.96;33.47
15694;BME280;7947;48.834;9.132;2023-06-26T14:58:38;98145.09;;;30.87;33.95
15694;BME280;7947;48.834;9.132;2023-06-26T15:01:42;98143.97;;;30.74;33.93
15694;BME280;7947;48.834;9.132;2023-06-26T15:04:45;98140.84;;;30.65;34.54
15694;BME280;7947;48.834;9.132;2023-06-26T15:07:48;98144.06;;;30.60;34.41
15694;BME280;7947;48.834;9.132;2023-06-26T15:10:51;98149.28;;;30.47;33.84
15694;BME280;7947;48.834;9.132;2023-06-26T15:13:55;98146.97;;;30.39;34.32
15694;BME280;7947;48.834;9.132;2023-06-26T15:16:59;98145.44;;;30.31;34.06
15694;BME280;7947;48.834;9.132;2023-06-26T15:20:02;98141.09;;;30.22;34.51
15694;BME280;7947;48.834;9.132;2023-06-26T15:23:05;98151.06;;;30.09;34.84
15694;BME280;7947;48.834;9.132;2023-06-26T15:26:08;98158.25;;;29.96;34.85
15694;BME280;7947;48.834;9.132;2023-06-26T15:29:11;98146.03;;;29.80;35.08
15694;BME280;7947;48.834;9.132;2023-06-26T15:32:18;98143.69;;;29.64;36.20
15694;BME280;7947;48.834;9.132;2023-06-26T15:35:21;98140.16;;;29.60;36.13
15694;BME280;7947;48.834;9.132;2023-06-26T15:38:24;98137.38;;;29.60;35.44
15694;BME280;7947;48.834;9.132;2023-06-26T15:41:27;98134.63;;;29.57;35.84
15694;BME280;7947;48.834;9.132;2023-06-26T15:44:30;98134.59;;;29.64;35.92
15694;BME280;7947;48.834;9.132;2023-06-26T15:47:35;98131.09;;;29.60;35.02
15694;BME280;7947;48.834;9.132;2023-06-26T15:50:38;98132.34;;;29.34;36.16
15694;BME280;7947;48.834;9.132;2023-06-26T15:53:41;98144.19;;;29.13;36.38
15694;BME280;7947;48.834;9.132;2023-06-26T15:56:43;98140.63;;;28.99;36.79
15694;BME280;7947;48.834;9.132;2023-06-26T15:59:48;98130.00;;;28.94;36.59
15694;BME280;7947;48.834;9.132;2023-06-26T16:02:52;98134.31;;;28.77;36.25
15694;BME280;7947;48.834;9.132;2023-06-26T16:05:55;98131.13;;;28.61;37.21
15694;BME280;7947;48.834;9.132;2023-06-26T16:08:58;98137.81;;;28.49;38.00
15694;BME280;7947;48.834;9.132;2023-06-26T16:12:01;98135.44;;;28.44;37.13
15694;BME280;7947;48.834;9.132;2023-06-26T16:15:05;98140.56;;;28.39;37.31
15694;BME280;7947;48.834;9.132;2023-06-26T16:18:09;98132.66;;;28.34;37.44
15694;BME280;7947;48.834;9.132;2023-06-26T16:21:12;98136.19;;;28.27;36.83
15694;BME280;7947;48.834;9.132;2023-06-26T16:24:15;98137.75;;;28.18;36.72
15694;BME280;7947;48.834;9.132;2023-06-26T16:27:18;98138.09;;;28.09;37.46